sensor_id;sensor_type;location;lat;lon;timestamp;temperature;humidity
71994;DHT22;59861;50.268;8.648;2023-05-21T00:02:17;16.30;68.60
71994;DHT22;59861;50.268;8.648;2023-05-21T00:04:44;16.30;68.60
71994;DHT22;59861;50.268;8.648;2023-05-21T00:07:11;16.30;68.60
71994;DHT22;59861;50.268;8.648;2023-05-21T00:09:39;16.30;68.60
71994;DHT22;59861;50.268;8.648;2023-05-21T00:12:07;16.30;68.50
71994;DHT22;59861;50.268;8.648;2023-05-21T00:14:34;16.30;67.90
71994;DHT22;59861;50.268;8.648;2023-05-21T00:17:01;16.20;69.40
71994;DHT22;59861;50.268;8.648;2023-05-21T00:19:28;16.30;68.60
71994;DHT22;59861;50.268;8.648;2023-05-21T00:21:56;16.30;68.50
71994;DHT22;59861;50.268;8.648;2023-05-21T00:24:25;16.30;68.50
71994;DHT22;59861;50.268;8.648;2023-05-21T00:26:52;16.30;68.60
71994;DHT22;59861;50.268;8.648;2023-05-21T00:29:18;16.20;68.60
71994;DHT22;59861;50.268;8.648;2023-05-21T00:31:45;16.20;68.50
71994;DHT22;59861;50.268;8.648;2023-05-21T00:34:12;16.20;68.60
71994;DHT22;59861;50.268;8.648;2023-05-21T00:36:39;16.20;68.50
71994;DHT22;59861;50.268;8.648;2023-05-21T00:39:08;16.20;68.40
71994;DHT22;59861;50.268;8.648;2023-05-21T00:41:35;16.20;68.50
71994;DHT22;59861;50.268;8.648;2023-05-21T00:44:03;16.20;68.50
71994;DHT22;59861;50.268;8.648;2023-05-21T00:46:29;16.20;68.50
71994;DHT22;59861;50.268;8.648;2023-05-21T00:48:56;16.20;68.40
71994;DHT22;59861;50.268;8.648;2023-05-21T00:51:23;16.30;68.50
71994;DHT22;59861;50.268;8.648;2023-05-21T00:53:52;16.20;68.30
71994;DHT22;59861;50.268;8.648;2023-05-21T00:56:19;16.30;68.40
71994;DHT22;59861;50.268;8.648;2023-05-21T00:58:47;16.30;68.40
71994;DHT22;59861;50.268;8.648;2023-05-21T01:01:14;16.30;68.50
71994;DHT22;59861;50.268;8.648;2023-05-21T01:03:43;16.30;68.40
71994;DHT22;59861;50.268;8.648;2023-05-21T01:06:10;16.30;68.40
71994;DHT22;59861;50.268;8.648;2023-05-21T01:08:38;16.30;68.40
71994;DHT22;59861;50.268;8.648;2023-05-21T01:11:07;16.30;68.40
71994;DHT22;59861;50.268;8.648;2023-05-21T01:16:21;16.30;68.30
71994;DHT22;59861;50.268;8.648;2023-05-21T01:18:47;16.30;68.30
71994;DHT22;59861;50.268;8.648;2023-05-21T01:21:14;16.30;68.20
71994;DHT22;59861;50.268;8.648;2023-05-21T01:23:42;16.30;68.20
71994;DHT22;59861;50.268;8.648;2023-05-21T01:26:08;16.20;68.20
71994;DHT22;59861;50.268;8.648;2023-05-21T01:28:37;16.30;68.30
71994;DHT22;59861;50.268;8.648;2023-05-21T01:31:09;16.20;68.20
71994;DHT22;59861;50.268;8.648;2023-05-21T01:33:34;16.20;68.20
71994;DHT22;59861;50.268;8.648;2023-05-21T01:36:06;16.30;68.20
71994;DHT22;59861;50.268;8.648;2023-05-21T01:38:46;16.30;68.20
71994;DHT22;59861;50.268;8.648;2023-05-21T01:41:09;16.30;68.30
71994;DHT22;59861;50.268;8.648;2023-05-21T01:43:41;16.20;68.10
71994;DHT22;59861;50.268;8.648;2023-05-21T01:46:09;16.20;68.10
71994;DHT22;59861;50.268;8.648;2023-05-21T01:48:36;16.30;68.10
71994;DHT22;59861;50.268;8.648;2023-05-21T01:51:04;16.30;68.10
71994;DHT22;59861;50.268;8.648;2023-05-21T01:53:31;16.30;68.10
71994;DHT22;59861;50.268;8.648;2023-05-21T01:55:58;16.30;68.10
71994;DHT22;59861;50.268;8.648;2023-05-21T01:58:25;16.30;68.10
71994;DHT22;59861;50.268;8.648;2023-05-21T02:00:52;16.30;68.10
71994;DHT22;59861;50.268;8.648;2023-05-21T02:03:19;16.30;68.10
71994;DHT22;59861;50.268;8.648;2023-05-21T02:05:46;16.30;68.00
71994;DHT22;59861;50.268;8.648;2023-05-21T02:08:13;16.20;67.90
71994;DHT22;59861;50.268;8.648;2023-05-21T02:10:40;16.30;68.00
71994;DHT22;59861;50.268;8.648;2023-05-21T02:13:06;16.30;68.20
71994;DHT22;59861;50.268;8.648;2023-05-21T02:15:33;16.20;68.00
71994;DHT22;59861;50.268;8.648;2023-05-21T02:18:00;16.20;68.10
71994;DHT22;59861;50.268;8.648;2023-05-21T02:20:27;16.20;68.00
71994;DHT22;59861;50.268;8.648;2023-05-21T02:22:54;16.20;68.00
71994;DHT22;59861;50.268;8.648;2023-05-21T02:25:21;16.20;68.10
71994;DHT22;59861;50.268;8.648;2023-05-21T02:27:47;16.20;68.10
71994;DHT22;59861;50.268;8.648;2023-05-21T02:30:16;16.30;68.00
71994;DHT22;59861;50.268;8.648;2023-05-21T02:32:43;16.20;68.20
71994;DHT22;59861;50.268;8.648;2023-05-21T02:35:10;16.30;68.10
71994;DHT22;59861;50.268;8.648;2023-05-21T02:37:38;16.20;68.10
71994;DHT22;59861;50.268;8.648;2023-05-21T02:40:08;16.20;68.00
71994;DHT22;59861;50.268;8.648;2023-05-21T02:42:36;16.20;68.10
71994;DHT22;59861;50.268;8.648;2023-05-21T02:45:07;16.20;68.00
71994;DHT22;59861;50.268;8.648;2023-05-21T02:47:35;16.20;68.10
71994;DHT22;59861;50.268;8.648;2023-05-21T02:52:54;16.20;68.10
71994;DHT22;59861;50.268;8.648;2023-05-21T02:55:21;16.20;68.10
71994;DHT22;59861;50.268;8.648;2023-05-21T02:57:48;16.20;68.00
71994;DHT22;59861;50.268;8.648;2023-05-21T03:00:15;16.20;68.10
71994;DHT22;59861;50.268;8.648;2023-05-21T03:02:42;16.20;68.00
71994;DHT22;59861;50.268;8.648;2023-05-21T03:05:09;16.20;69.00
71994;DHT22;59861;50.268;8.648;2023-05-21T03:07:35;16.20;68.10
71994;DHT22;59861;50.268;8.648;2023-05-21T03:10:02;16.20;68.00
71994;DHT22;59861;50.268;8.648;2023-05-21T03:12:30;16.20;68.10
71994;DHT22;59861;50.268;8.648;2023-05-21T03:14:56;16.20;68.00
71994;DHT22;59861;50.268;8.648;2023-05-21T03:17:24;16.20;68.20
71994;DHT22;59861;50.268;8.648;2023-05-21T03:19:51;16.20;68.10
71994;DHT22;59861;50.268;8.648;2023-05-21T03:22:19;16.20;68.10
71994;DHT22;59861;50.268;8.648;2023-05-21T03:24:46;16.20;68.20
71994;DHT22;59861;50.268;8.648;2023-05-21T03:27:13;16.20;68.10
71994;DHT22;59861;50.268;8.648;2023-05-21T03:29:40;16.20;68.10
71994;DHT22;59861;50.268;8.648;2023-05-21T03:32:08;16.20;68.10
71994;DHT22;59861;50.268;8.648;2023-05-21T03:34:34;16.20;68.10
71994;DHT22;59861;50.268;8.648;2023-05-21T03:37:02;16.20;68.00
71994;DHT22;59861;50.268;8.648;2023-05-21T03:39:29;16.20;68.10
71994;DHT22;59861;50.268;8.648;2023-05-21T03:41:55;16.20;68.10
71994;DHT22;59861;50.268;8.648;2023-05-21T03:44:22;16.20;68.10
71994;DHT22;59861;50.268;8.648;2023-05-21T03:46:49;16.20;68.10
71994;DHT22;59861;50.268;8.648;2023-05-21T03:49:16;16.20;68.10
71994;DHT22;59861;50.268;8.648;2023-05-21T03:51:43;16.20;68.10
71994;DHT22;59861;50.268;8.648;2023-05-21T03:54:09;16.20;68.10
71994;DHT22;59861;50.268;8.648;2023-05-21T03:56:36;16.20;68.10
71994;DHT22;59861;50.268;8.648;2023-05-21T03:59:03;16.20;68.10
71994;DHT22;59861;50.268;8.648;2023-05-21T04:01:30;16.20;68.00
71994;DHT22;59861;50.268;8.648;2023-05-21T04:03:57;16.20;68.00
71994;DHT22;59861;50.268;8.648;2023-05-21T04:06:24;16.20;68.00
71994;DHT22;59861;50.268;8.648;2023-05-21T04:08:51;16.20;68.10
71994;DHT22;59861;50.268;8.648;2023-05-21T04:11:18;16.20;68.10
71994;DHT22;59861;50.268;8.648;2023-05-21T04:13:45;16.20;68.00
71994;DHT22;59861;50.268;8.648;2023-05-21T04:16:13;16.20;68.10
71994;DHT22;59861;50.268;8.648;2023-05-21T04:18:41;16.20;68.10
71994;DHT22;59861;50.268;8.648;2023-05-21T04:21:08;16.20;68.10
71994;DHT22;59861;50.268;8.648;2023-05-21T04:23:35;16.20;68.10
71994;DHT22;59861;50.268;8.648;2023-05-21T04:26:01;16.20;68.00
71994;DHT22;59861;50.268;8.648;2023-05-21T04:28:29;16.10;68.40
71994;DHT22;59861;50.268;8.648;2023-05-21T04:30:56;16.20;68.00
71994;DHT22;59861;50.268;8.648;2023-05-21T04:33:23;16.20;67.90
71994;DHT22;59861;50.268;8.648;2023-05-21T04:35:50;16.20;67.90
71994;DHT22;59861;50.268;8.648;2023-05-21T04:38:17;16.20;68.00
71994;DHT22;59861;50.268;8.648;2023-05-21T04:40:49;16.20;68.00
71994;DHT22;59861;50.268;8.648;2023-05-21T04:43:16;16.20;68.00
71994;DHT22;59861;50.268;8.648;2023-05-21T04:45:43;16.20;68.00
71994;DHT22;59861;50.268;8.648;2023-05-21T04:48:10;16.20;68.00
71994;DHT22;59861;50.268;8.648;2023-05-21T04:50:37;16.20;68.00
71994;DHT22;59861;50.268;8.648;2023-05-21T04:53:06;16.20;67.90
71994;DHT22;59861;50.268;8.648;2023-05-21T04:55:33;16.20;68.10
71994;DHT22;59861;50.268;8.648;2023-05-21T04:58:01;16.20;68.00
71994;DHT22;59861;50.268;8.648;2023-05-21T05:00:28;16.20;67.90
71994;DHT22;59861;50.268;8.648;2023-05-21T05:02:55;16.20;67.90
71994;DHT22;59861;50.268;8.648;2023-05-21T05:05:21;16.10;67.80
71994;DHT22;59861;50.268;8.648;2023-05-21T05:07:48;16.20;67.90
71994;DHT22;59861;50.268;8.648;2023-05-21T05:10:15;16.20;67.90
71994;DHT22;59861;50.268;8.648;2023-05-21T05:12:42;16.20;67.90
71994;DHT22;59861;50.268;8.648;2023-05-21T05:15:09;16.10;67.80
71994;DHT22;59861;50.268;8.648;2023-05-21T05:17:36;16.20;67.90
71994;DHT22;59861;50.268;8.648;2023-05-21T05:20:09;16.20;67.90
71994;DHT22;59861;50.268;8.648;2023-05-21T05:22:32;16.20;67.80
71994;DHT22;59861;50.268;8.648;2023-05-21T05:24:59;16.20;67.90
71994;DHT22;59861;50.268;8.648;2023-05-21T05:27:26;16.20;67.80
71994;DHT22;59861;50.268;8.648;2023-05-21T05:29:53;16.20;67.80
71994;DHT22;59861;50.268;8.648;2023-05-21T05:32:20;16.20;67.80
71994;DHT22;59861;50.268;8.648;2023-05-21T05:34:46;16.20;67.70
71994;DHT22;59861;50.268;8.648;2023-05-21T05:37:13;16.20;67.70
71994;DHT22;59861;50.268;8.648;2023-05-21T05:39:40;16.20;67.70
71994;DHT22;59861;50.268;8.648;2023-05-21T05:44:59;16.20;67.70
71994;DHT22;59861;50.268;8.648;2023-05-21T05:47:26;16.20;67.60
71994;DHT22;59861;50.268;8.648;2023-05-21T05:49:52;16.20;67.60
71994;DHT22;59861;50.268;8.648;2023-05-21T05:52:19;16.20;68.50
71994;DHT22;59861;50.268;8.648;2023-05-21T05:54:46;16.20;67.60
71994;DHT22;59861;50.268;8.648;2023-05-21T05:57:13;16.20;67.60
71994;DHT22;59861;50.268;8.648;2023-05-21T05:59:40;16.20;67.60
71994;DHT22;59861;50.268;8.648;2023-05-21T06:02:06;16.20;67.50
71994;DHT22;59861;50.268;8.648;2023-05-21T06:04:33;16.20;67.50
71994;DHT22;59861;50.268;8.648;2023-05-21T06:07:00;16.20;67.60
71994;DHT22;59861;50.268;8.648;2023-05-21T06:09:27;16.20;67.50
71994;DHT22;59861;50.268;8.648;2023-05-21T06:11:54;16.20;67.60
71994;DHT22;59861;50.268;8.648;2023-05-21T06:14:20;16.20;67.50
71994;DHT22;59861;50.268;8.648;2023-05-21T06:16:47;16.20;67.50
71994;DHT22;59861;50.268;8.648;2023-05-21T06:19:14;16.20;67.60
71994;DHT22;59861;50.268;8.648;2023-05-21T06:21:41;16.20;67.40
71994;DHT22;59861;50.268;8.648;2023-05-21T06:24:08;16.20;67.60
71994;DHT22;59861;50.268;8.648;2023-05-21T06:26:34;16.20;67.50
71994;DHT22;59861;50.268;8.648;2023-05-21T06:29:01;16.20;67.50
71994;DHT22;59861;50.268;8.648;2023-05-21T06:31:28;16.20;67.60
71994;DHT22;59861;50.268;8.648;2023-05-21T06:33:57;16.20;67.60
71994;DHT22;59861;50.268;8.648;2023-05-21T06:36:25;16.20;67.50
71994;DHT22;59861;50.268;8.648;2023-05-21T06:38:58;16.20;67.60
71994;DHT22;59861;50.268;8.648;2023-05-21T06:41:22;16.20;67.50
71994;DHT22;59861;50.268;8.648;2023-05-21T06:43:49;16.20;67.60
71994;DHT22;59861;50.268;8.648;2023-05-21T06:46:16;16.20;67.70
71994;DHT22;59861;50.268;8.648;2023-05-21T06:48:43;16.20;67.60
71994;DHT22;59861;50.268;8.648;2023-05-21T06:51:11;16.20;67.60
71994;DHT22;59861;50.268;8.648;2023-05-21T06:53:38;16.20;67.60
71994;DHT22;59861;50.268;8.648;2023-05-21T06:56:04;16.20;67.60
71994;DHT22;59861;50.268;8.648;2023-05-21T06:58:31;16.20;67.60
71994;DHT22;59861;50.268;8.648;2023-05-21T07:00:59;16.20;67.50
71994;DHT22;59861;50.268;8.648;2023-05-21T07:03:26;16.20;67.60
71994;DHT22;59861;50.268;8.648;2023-05-21T07:05:54;16.20;67.50
71994;DHT22;59861;50.268;8.648;2023-05-21T07:08:21;16.20;67.50
71994;DHT22;59861;50.268;8.648;2023-05-21T07:10:48;16.20;67.50
71994;DHT22;59861;50.268;8.648;2023-05-21T07:13:15;16.20;67.60
71994;DHT22;59861;50.268;8.648;2023-05-21T07:15:41;16.30;67.70
71994;DHT22;59861;50.268;8.648;2023-05-21T07:18:08;16.20;67.50
71994;DHT22;59861;50.268;8.648;2023-05-21T07:20:36;16.20;67.60
71994;DHT22;59861;50.268;8.648;2023-05-21T07:23:03;16.20;67.60
71994;DHT22;59861;50.268;8.648;2023-05-21T07:25:31;16.20;67.60
71994;DHT22;59861;50.268;8.648;2023-05-21T07:27:58;16.30;67.60
71994;DHT22;59861;50.268;8.648;2023-05-21T07:30:25;16.20;67.70
71994;DHT22;59861;50.268;8.648;2023-05-21T07:32:52;16.30;67.70
71994;DHT22;59861;50.268;8.648;2023-05-21T07:35:19;16.20;67.60
71994;DHT22;59861;50.268;8.648;2023-05-21T07:37:46;16.20;67.70
71994;DHT22;59861;50.268;8.648;2023-05-21T07:40:12;16.20;67.60
71994;DHT22;59861;50.268;8.648;2023-05-21T07:42:39;16.20;67.60
71994;DHT22;59861;50.268;8.648;2023-05-21T07:45:06;16.20;67.70
71994;DHT22;59861;50.268;8.648;2023-05-21T07:47:33;16.20;67.60
71994;DHT22;59861;50.268;8.648;2023-05-21T07:50:00;16.30;68.50
71994;DHT22;59861;50.268;8.648;2023-05-21T07:52:26;16.20;67.60
71994;DHT22;59861;50.268;8.648;2023-05-21T07:54:53;16.20;67.60
71994;DHT22;59861;50.268;8.648;2023-05-21T07:57:20;16.20;67.60
71994;DHT22;59861;50.268;8.648;2023-05-21T07:59:48;16.30;67.70
71994;DHT22;59861;50.268;8.648;2023-05-21T08:02:14;16.20;67.70
71994;DHT22;59861;50.268;8.648;2023-05-21T08:04:41;16.30;67.70
71994;DHT22;59861;50.268;8.648;2023-05-21T08:07:09;16.20;67.70
71994;DHT22;59861;50.268;8.648;2023-05-21T08:09:36;16.30;67.90
71994;DHT22;59861;50.268;8.648;2023-05-21T08:12:02;16.20;67.60
71994;DHT22;59861;50.268;8.648;2023-05-21T08:14:29;16.20;67.70
71994;DHT22;59861;50.268;8.648;2023-05-21T08:16:56;16.20;67.70
71994;DHT22;59861;50.268;8.648;2023-05-21T08:19:23;16.30;67.70
71994;DHT22;59861;50.268;8.648;2023-05-21T08:21:50;16.30;67.80
71994;DHT22;59861;50.268;8.648;2023-05-21T08:24:16;16.20;67.60
71994;DHT22;59861;50.268;8.648;2023-05-21T08:26:43;16.20;67.80
71994;DHT22;59861;50.268;8.648;2023-05-21T08:29:12;16.30;67.80
71994;DHT22;59861;50.268;8.648;2023-05-21T08:31:38;16.20;67.80
71994;DHT22;59861;50.268;8.648;2023-05-21T08:34:06;16.20;67.80
71994;DHT22;59861;50.268;8.648;2023-05-21T08:36:33;16.20;67.70
71994;DHT22;59861;50.268;8.648;2023-05-21T08:39:00;16.20;67.90
71994;DHT22;59861;50.268;8.648;2023-05-21T08:41:27;16.30;68.00
71994;DHT22;59861;50.268;8.648;2023-05-21T08:43:56;16.20;67.80
71994;DHT22;59861;50.268;8.648;2023-05-21T08:46:22;16.20;68.00
71994;DHT22;59861;50.268;8.648;2023-05-21T08:48:50;16.20;67.80
71994;DHT22;59861;50.268;8.648;2023-05-21T08:51:20;16.30;67.90
71994;DHT22;59861;50.268;8.648;2023-05-21T08:53:48;16.20;68.00
71994;DHT22;59861;50.268;8.648;2023-05-21T08:56:16;16.30;68.90
71994;DHT22;59861;50.268;8.648;2023-05-21T08:58:44;16.30;67.90
71994;DHT22;59861;50.268;8.648;2023-05-21T09:01:11;16.30;68.00
71994;DHT22;59861;50.268;8.648;2023-05-21T09:03:38;16.30;68.00
71994;DHT22;59861;50.268;8.648;2023-05-21T09:06:07;16.20;68.00
71994;DHT22;59861;50.268;8.648;2023-05-21T09:08:35;16.30;68.00
71994;DHT22;59861;50.268;8.648;2023-05-21T09:11:03;16.30;68.00
71994;DHT22;59861;50.268;8.648;2023-05-21T09:13:31;16.30;68.10
71994;DHT22;59861;50.268;8.648;2023-05-21T09:15:59;16.30;68.20
71994;DHT22;59861;50.268;8.648;2023-05-21T09:18:25;16.30;68.10
71994;DHT22;59861;50.268;8.648;2023-05-21T09:20:52;16.30;68.30
71994;DHT22;59861;50.268;8.648;2023-05-21T09:23:21;16.30;68.20
71994;DHT22;59861;50.268;8.648;2023-05-21T09:25:48;16.30;68.20
71994;DHT22;59861;50.268;8.648;2023-05-21T09:28:17;16.30;68.20
71994;DHT22;59861;50.268;8.648;2023-05-21T09:30:44;16.30;68.20
71994;DHT22;59861;50.268;8.648;2023-05-21T09:33:11;16.30;68.20
71994;DHT22;59861;50.268;8.648;2023-05-21T09:35:44;16.30;68.20
71994;DHT22;59861;50.268;8.648;2023-05-21T09:38:12;16.30;68.20
71994;DHT22;59861;50.268;8.648;2023-05-21T09:40:42;16.30;68.20
71994;DHT22;59861;50.268;8.648;2023-05-21T09:43:07;16.30;68.40
71994;DHT22;59861;50.268;8.648;2023-05-21T09:45:33;16.30;68.30
71994;DHT22;59861;50.268;8.648;2023-05-21T09:48:00;16.30;68.40
71994;DHT22;59861;50.268;8.648;2023-05-21T09:50:27;16.30;68.40
71994;DHT22;59861;50.268;8.648;2023-05-21T09:52:54;16.30;68.30
71994;DHT22;59861;50.268;8.648;2023-05-21T09:55:22;16.30;68.40
71994;DHT22;59861;50.268;8.648;2023-05-21T09:57:50;16.30;68.40
71994;DHT22;59861;50.268;8.648;2023-05-21T10:02:50;16.30;68.40
71994;DHT22;59861;50.268;8.648;2023-05-21T10:05:17;16.30;68.50
71994;DHT22;59861;50.268;8.648;2023-05-21T10:07:48;16.40;68.50
71994;DHT22;59861;50.268;8.648;2023-05-21T10:10:13;16.30;68.50
71994;DHT22;59861;50.268;8.648;2023-05-21T10:12:46;16.30;68.60
71994;DHT22;59861;50.268;8.648;2023-05-21T10:15:08;16.30;68.70
71994;DHT22;59861;50.268;8.648;2023-05-21T10:17:36;16.40;68.60
71994;DHT22;59861;50.268;8.648;2023-05-21T10:20:05;16.30;68.60
71994;DHT22;59861;50.268;8.648;2023-05-21T10:22:33;16.40;68.60
71994;DHT22;59861;50.268;8.648;2023-05-21T10:25:01;16.30;68.60
71994;DHT22;59861;50.268;8.648;2023-05-21T10:27:28;16.30;68.60
71994;DHT22;59861;50.268;8.648;2023-05-21T10:29:56;16.30;68.70
71994;DHT22;59861;50.268;8.648;2023-05-21T10:32:27;16.40;68.80
71994;DHT22;59861;50.268;8.648;2023-05-21T10:34:54;16.30;68.70
71994;DHT22;59861;50.268;8.648;2023-05-21T10:37:22;16.30;68.70
71994;DHT22;59861;50.268;8.648;2023-05-21T10:39:52;16.30;68.90
71994;DHT22;59861;50.268;8.648;2023-05-21T10:47:51;16.40;68.90
71994;DHT22;59861;50.268;8.648;2023-05-21T10:50:53;16.40;69.00
71994;DHT22;59861;50.268;8.648;2023-05-21T10:52:53;16.40;68.90
71994;DHT22;59861;50.268;8.648;2023-05-21T11:00:48;16.40;69.10
71994;DHT22;59861;50.268;8.648;2023-05-21T11:03:15;16.40;69.10
71994;DHT22;59861;50.268;8.648;2023-05-21T11:05:52;16.40;69.10
71994;DHT22;59861;50.268;8.648;2023-05-21T11:08:20;16.40;69.20
71994;DHT22;59861;50.268;8.648;2023-05-21T11:11:06;16.40;69.20
71994;DHT22;59861;50.268;8.648;2023-05-21T11:13:20;16.40;69.20
71994;DHT22;59861;50.268;8.648;2023-05-21T11:21:07;16.40;69.20
71994;DHT22;59861;50.268;8.648;2023-05-21T11:26:18;16.40;69.40
71994;DHT22;59861;50.268;8.648;2023-05-21T11:31:32;16.40;69.40
71994;DHT22;59861;50.268;8.648;2023-05-21T11:34:10;16.40;69.40
71994;DHT22;59861;50.268;8.648;2023-05-21T11:36:36;16.40;69.40
71994;DHT22;59861;50.268;8.648;2023-05-21T11:39:09;16.40;69.40
71994;DHT22;59861;50.268;8.648;2023-05-21T11:41:49;16.40;69.40
71994;DHT22;59861;50.268;8.648;2023-05-21T11:44:16;16.40;69.50
71994;DHT22;59861;50.268;8.648;2023-05-21T11:46:43;16.40;70.40
71994;DHT22;59861;50.268;8.648;2023-05-21T11:49:11;16.40;69.50
71994;DHT22;59861;50.268;8.648;2023-05-21T11:51:39;16.40;69.60
71994;DHT22;59861;50.268;8.648;2023-05-21T11:54:07;16.40;69.60
71994;DHT22;59861;50.268;8.648;2023-05-21T11:56:35;16.40;69.60
71994;DHT22;59861;50.268;8.648;2023-05-21T11:59:03;16.40;69.60
71994;DHT22;59861;50.268;8.648;2023-05-21T12:01:30;16.40;69.80
71994;DHT22;59861;50.268;8.648;2023-05-21T12:03:57;16.40;69.60
71994;DHT22;59861;50.268;8.648;2023-05-21T12:06:27;16.40;69.80
71994;DHT22;59861;50.268;8.648;2023-05-21T12:08:55;16.50;69.80
71994;DHT22;59861;50.268;8.648;2023-05-21T12:11:23;16.50;69.70
71994;DHT22;59861;50.268;8.648;2023-05-21T12:13:49;16.50;69.80
71994;DHT22;59861;50.268;8.648;2023-05-21T12:16:16;16.50;69.90
71994;DHT22;59861;50.268;8.648;2023-05-21T12:18:43;16.50;69.80
71994;DHT22;59861;50.268;8.648;2023-05-21T12:21:10;16.50;70.00
71994;DHT22;59861;50.268;8.648;2023-05-21T12:23:37;16.50;69.80
71994;DHT22;59861;50.268;8.648;2023-05-21T12:26:03;16.50;69.90
71994;DHT22;59861;50.268;8.648;2023-05-21T12:28:30;16.50;69.90
71994;DHT22;59861;50.268;8.648;2023-05-21T12:30:57;16.50;69.90
71994;DHT22;59861;50.268;8.648;2023-05-21T12:33:24;16.50;70.10
71994;DHT22;59861;50.268;8.648;2023-05-21T12:35:52;16.50;70.00
71994;DHT22;59861;50.268;8.648;2023-05-21T12:38:19;16.50;70.00
71994;DHT22;59861;50.268;8.648;2023-05-21T12:40:46;16.50;70.00
71994;DHT22;59861;50.268;8.648;2023-05-21T12:43:13;16.50;70.10
71994;DHT22;59861;50.268;8.648;2023-05-21T12:45:40;16.50;69.90
71994;DHT22;59861;50.268;8.648;2023-05-21T12:48:07;16.50;70.20
71994;DHT22;59861;50.268;8.648;2023-05-21T12:50:37;16.50;70.10
71994;DHT22;59861;50.268;8.648;2023-05-21T12:53:02;16.50;70.10
71994;DHT22;59861;50.268;8.648;2023-05-21T12:55:28;16.50;70.10
71994;DHT22;59861;50.268;8.648;2023-05-21T12:58:03;16.50;70.20
71994;DHT22;59861;50.268;8.648;2023-05-21T13:00:32;16.50;70.20
71994;DHT22;59861;50.268;8.648;2023-05-21T13:02:59;16.50;70.10
71994;DHT22;59861;50.268;8.648;2023-05-21T13:05:26;16.50;70.20
71994;DHT22;59861;50.268;8.648;2023-05-21T13:07:53;16.50;70.20
71994;DHT22;59861;50.268;8.648;2023-05-21T13:10:20;16.50;70.20
71994;DHT22;59861;50.268;8.648;2023-05-21T13:12:47;16.50;70.30
71994;DHT22;59861;50.268;8.648;2023-05-21T13:15:14;16.50;70.30
71994;DHT22;59861;50.268;8.648;2023-05-21T13:17:40;16.50;70.20
71994;DHT22;59861;50.268;8.648;2023-05-21T13:20:11;16.60;70.40
71994;DHT22;59861;50.268;8.648;2023-05-21T13:22:39;16.60;70.30
71994;DHT22;59861;50.268;8.648;2023-05-21T13:25:11;16.60;70.50
71994;DHT22;59861;50.268;8.648;2023-05-21T13:27:40;16.60;70.60
71994;DHT22;59861;50.268;8.648;2023-05-21T13:30:07;16.60;70.40
71994;DHT22;59861;50.268;8.648;2023-05-21T13:32:34;16.60;70.40
71994;DHT22;59861;50.268;8.648;2023-05-21T13:35:01;16.60;70.50
71994;DHT22;59861;50.268;8.648;2023-05-21T13:37:28;16.60;70.60
71994;DHT22;59861;50.268;8.648;2023-05-21T13:39:55;16.60;71.20
71994;DHT22;59861;50.268;8.648;2023-05-21T13:42:22;16.60;70.60
71994;DHT22;59861;50.268;8.648;2023-05-21T13:44:49;16.60;70.60
71994;DHT22;59861;50.268;8.648;2023-05-21T13:47:16;16.60;70.60
71994;DHT22;59861;50.268;8.648;2023-05-21T13:49:42;16.60;70.60
71994;DHT22;59861;50.268;8.648;2023-05-21T13:52:10;16.60;70.60
71994;DHT22;59861;50.268;8.648;2023-05-21T13:54:37;16.60;70.60
71994;DHT22;59861;50.268;8.648;2023-05-21T13:57:04;16.60;70.60
71994;DHT22;59861;50.268;8.648;2023-05-21T13:59:31;16.60;71.40
71994;DHT22;59861;50.268;8.648;2023-05-21T14:01:57;16.60;70.80
71994;DHT22;59861;50.268;8.648;2023-05-21T14:04:24;16.60;70.70
71994;DHT22;59861;50.268;8.648;2023-05-21T14:06:51;16.60;70.80
71994;DHT22;59861;50.268;8.648;2023-05-21T14:09:18;16.60;70.70
71994;DHT22;59861;50.268;8.648;2023-05-21T14:11:45;16.60;70.80
71994;DHT22;59861;50.268;8.648;2023-05-21T14:14:11;16.60;70.70
71994;DHT22;59861;50.268;8.648;2023-05-21T14:16:40;16.60;70.80
71994;DHT22;59861;50.268;8.648;2023-05-21T14:19:07;16.60;71.70
71994;DHT22;59861;50.268;8.648;2023-05-21T14:21:34;16.70;70.80
71994;DHT22;59861;50.268;8.648;2023-05-21T14:24:00;16.60;70.90
71994;DHT22;59861;50.268;8.648;2023-05-21T14:26:27;16.60;70.80
71994;DHT22;59861;50.268;8.648;2023-05-21T14:28:54;16.70;71.00
71994;DHT22;59861;50.268;8.648;2023-05-21T14:31:21;16.70;71.00
71994;DHT22;59861;50.268;8.648;2023-05-21T14:33:49;16.60;71.00
71994;DHT22;59861;50.268;8.648;2023-05-21T14:36:16;16.70;71.10
71994;DHT22;59861;50.268;8.648;2023-05-21T14:38:42;16.60;71.10
71994;DHT22;59861;50.268;8.648;2023-05-21T14:41:09;16.70;71.10
71994;DHT22;59861;50.268;8.648;2023-05-21T14:43:36;16.70;71.10
71994;DHT22;59861;50.268;8.648;2023-05-21T14:46:03;16.70;71.10
71994;DHT22;59861;50.268;8.648;2023-05-21T14:48:30;16.70;71.20
71994;DHT22;59861;50.268;8.648;2023-05-21T14:50:57;16.70;71.20
71994;DHT22;59861;50.268;8.648;2023-05-21T14:53:24;16.70;71.20
71994;DHT22;59861;50.268;8.648;2023-05-21T14:55:51;16.70;71.20
71994;DHT22;59861;50.268;8.648;2023-05-21T14:58:18;16.70;71.40
71994;DHT22;59861;50.268;8.648;2023-05-21T15:00:45;16.70;71.30
71994;DHT22;59861;50.268;8.648;2023-05-21T15:03:12;16.70;71.20
71994;DHT22;59861;50.268;8.648;2023-05-21T15:05:39;16.70;71.30
71994;DHT22;59861;50.268;8.648;2023-05-21T15:08:06;16.70;71.20
71994;DHT22;59861;50.268;8.648;2023-05-21T15:10:34;16.70;71.30
71994;DHT22;59861;50.268;8.648;2023-05-21T15:13:01;16.70;71.30
71994;DHT22;59861;50.268;8.648;2023-05-21T15:15:28;16.70;71.20
71994;DHT22;59861;50.268;8.648;2023-05-21T15:17:54;16.70;72.10
71994;DHT22;59861;50.268;8.648;2023-05-21T15:20:22;16.70;71.30
71994;DHT22;59861;50.268;8.648;2023-05-21T15:22:49;16.70;71.40
71994;DHT22;59861;50.268;8.648;2023-05-21T15:25:16;16.70;71.40
71994;DHT22;59861;50.268;8.648;2023-05-21T15:27:44;16.70;71.30
71994;DHT22;59861;50.268;8.648;2023-05-21T15:30:11;16.70;71.40
71994;DHT22;59861;50.268;8.648;2023-05-21T15:32:38;16.70;71.40
71994;DHT22;59861;50.268;8.648;2023-05-21T15:35:05;16.70;71.50
71994;DHT22;59861;50.268;8.648;2023-05-21T15:37:32;16.70;71.40
71994;DHT22;59861;50.268;8.648;2023-05-21T15:39:59;16.70;71.40
71994;DHT22;59861;50.268;8.648;2023-05-21T15:42:25;16.70;71.40
71994;DHT22;59861;50.268;8.648;2023-05-21T15:44:54;16.70;71.40
71994;DHT22;59861;50.268;8.648;2023-05-21T15:47:21;16.80;71.80
71994;DHT22;59861;50.268;8.648;2023-05-21T15:49:48;16.70;71.70
71994;DHT22;59861;50.268;8.648;2023-05-21T15:52:14;16.80;71.80
71994;DHT22;59861;50.268;8.648;2023-05-21T15:54:41;16.80;72.80
71994;DHT22;59861;50.268;8.648;2023-05-21T15:57:08;16.80;72.10
71994;DHT22;59861;50.268;8.648;2023-05-21T15:59:35;16.80;72.10
71994;DHT22;59861;50.268;8.648;2023-05-21T16:02:02;16.80;72.20
71994;DHT22;59861;50.268;8.648;2023-05-21T16:04:28;16.80;72.50